AFL212 UUEE-VHHH
Flight info
| Callsign | AFL212 |
|---|---|
| Flight time | N/A |
| Altitude | 37000 |
| Route | K0917F370 OLMUN3E OLMUN T629 IPSIL T830 LAMGU N604 OGSIN P983 TINRI T448 RUBOR A300 ML/K0876F390 R814 SZ B926 ODIDA A575 DARNO/K0883S1190 Y746 NIXAL G343 TMR B458 EMVEM/K0885S1250 B458 DADGA/K0876S1220 W37 GUSIV/K0882S1250 W37 PEXID/K0878S1220 W37 OMBEB/K0880S1250 R473 NNX/K0882S1220 R473 WYN W18 NLG W23 ZUH R473 SIERA SIERA7C |
| Aircraft | A359/H-SDE2E3GHIJ3J4J5LM1ORWXY/LB1D1 |
Departure
| Time | N/A |
|---|---|
| Airport | Sheremetyevo International Airport (UUEE) |
Arrival
| Time | 2026-04-30 19:21 |
|---|---|
| Airport | Hong Kong International Airport (VHHH) |
| Time | Latitude | Longitude | Altitude | Speed | Heading |
|---|---|---|---|---|---|
| 2026-04-30 18:11 | 25.20459 | 114.24070 | 39190 ft | 491 kts | 173° |
| 2026-04-30 18:13 | 25.03975 | 114.26043 | 39185 ft | 468 kts | 196° |
| 2026-04-30 18:14 | 24.88095 | 114.22493 | 39183 ft | 466 kts | 199° |
| 2026-04-30 18:15 | 24.68993 | 114.18315 | 39186 ft | 466 kts | 198° |
| 2026-04-30 18:16 | 24.56273 | 114.15559 | 39180 ft | 466 kts | 198° |
| 2026-04-30 18:17 | 24.49946 | 114.14190 | 39176 ft | 465 kts | 198° |
| 2026-04-30 18:18 | 24.40417 | 114.12131 | 39178 ft | 464 kts | 198° |
| 2026-04-30 18:18 | 24.34113 | 114.10770 | 39176 ft | 464 kts | 198° |
| 2026-04-30 18:19 | 24.27865 | 114.09015 | 39173 ft | 459 kts | 203° |
| 2026-04-30 18:19 | 24.21743 | 114.07017 | 39163 ft | 460 kts | 203° |
| 2026-04-30 18:20 | 24.15621 | 114.05068 | 39172 ft | 461 kts | 202° |
| 2026-04-30 18:20 | 24.09429 | 114.03164 | 39167 ft | 461 kts | 202° |
| 2026-04-30 18:21 | 24.03268 | 114.01301 | 39169 ft | 461 kts | 202° |
| 2026-04-30 18:21 | 23.97072 | 113.99427 | 39165 ft | 461 kts | 202° |
| 2026-04-30 18:22 | 23.90908 | 113.97558 | 39158 ft | 461 kts | 202° |
| 2026-04-30 18:22 | 23.81635 | 113.94751 | 39156 ft | 461 kts | 202° |
| 2026-04-30 18:23 | 23.75428 | 113.92876 | 39154 ft | 461 kts | 202° |
| 2026-04-30 18:23 | 23.69262 | 113.91014 | 39157 ft | 461 kts | 202° |
| 2026-04-30 18:24 | 23.59981 | 113.88211 | 39153 ft | 463 kts | 201° |
| 2026-04-30 18:25 | 23.53764 | 113.86341 | 39144 ft | 463 kts | 201° |
| 2026-04-30 18:25 | 23.47531 | 113.84467 | 38786 ft | 463 kts | 201° |
| 2026-04-30 18:25 | 23.44449 | 113.83537 | 38552 ft | 463 kts | 201° |
| 2026-04-30 18:26 | 23.38207 | 113.81649 | 38685 ft | 466 kts | 201° |
| 2026-04-30 18:26 | 23.35090 | 113.80708 | 38932 ft | 464 kts | 201° |
| 2026-04-30 18:26 | 23.31975 | 113.79770 | 39098 ft | 463 kts | 201° |
| 2026-04-30 18:27 | 23.25831 | 113.77924 | 39128 ft | 458 kts | 201° |
| 2026-04-30 18:28 | 23.16616 | 113.75154 | 39139 ft | 458 kts | 201° |
| 2026-04-30 18:28 | 23.07327 | 113.72358 | 38688 ft | 469 kts | 201° |
| 2026-04-30 18:29 | 23.04205 | 113.71417 | 38421 ft | 471 kts | 200° |
| 2026-04-30 18:29 | 22.94697 | 113.68564 | 37629 ft | 474 kts | 200° |
| 2026-04-30 18:30 | 22.88288 | 113.66645 | 37109 ft | 477 kts | 200° |
| 2026-04-30 18:30 | 22.81900 | 113.64709 | 36597 ft | 478 kts | 200° |
| 2026-04-30 18:31 | 22.78695 | 113.63726 | 36350 ft | 478 kts | 200° |
| 2026-04-30 18:31 | 22.72315 | 113.61773 | 35860 ft | 476 kts | 200° |
| 2026-04-30 18:32 | 22.65963 | 113.59836 | 35381 ft | 473 kts | 200° |
| 2026-04-30 18:32 | 22.62823 | 113.58881 | 35143 ft | 472 kts | 200° |
| 2026-04-30 18:32 | 22.56490 | 113.56957 | 34665 ft | 470 kts | 200° |
| 2026-04-30 18:33 | 22.53334 | 113.55999 | 34447 ft | 467 kts | 200° |
| 2026-04-30 18:33 | 22.47140 | 113.54113 | 33975 ft | 463 kts | 200° |
| 2026-04-30 18:33 | 22.44038 | 113.53159 | 33649 ft | 458 kts | 200° |
| 2026-04-30 18:34 | 22.41025 | 113.52233 | 33203 ft | 452 kts | 200° |
| 2026-04-30 18:34 | 22.35026 | 113.50393 | 32195 ft | 444 kts | 200° |
| 2026-04-30 18:34 | 22.32060 | 113.49485 | 31701 ft | 441 kts | 200° |
| 2026-04-30 18:35 | 22.29115 | 113.48583 | 31195 ft | 437 kts | 200° |
| 2026-04-30 18:35 | 22.26180 | 113.47710 | 30687 ft | 435 kts | 199° |
| 2026-04-30 18:35 | 22.23171 | 113.47248 | 30193 ft | 438 kts | 188° |
| 2026-04-30 18:36 | 22.17170 | 113.48316 | 29132 ft | 443 kts | 167° |
| 2026-04-30 18:36 | 22.14254 | 113.49397 | 28622 ft | 440 kts | 167° |
| 2026-04-30 18:36 | 22.08511 | 113.51557 | 27609 ft | 433 kts | 167° |
| 2026-04-30 18:37 | 22.05663 | 113.52617 | 27102 ft | 430 kts | 167° |
| 2026-04-30 18:37 | 22.02848 | 113.53656 | 26602 ft | 426 kts | 167° |
| 2026-04-30 18:37 | 22.00001 | 113.54388 | 26103 ft | 416 kts | 180° |
| 2026-04-30 18:37 | 21.97200 | 113.54231 | 25623 ft | 401 kts | 199° |
| 2026-04-30 18:38 | 21.94610 | 113.53260 | 25151 ft | 391 kts | 210° |
| 2026-04-30 18:38 | 21.92151 | 113.52049 | 24698 ft | 386 kts | 211° |
| 2026-04-30 18:38 | 21.89732 | 113.50830 | 24268 ft | 382 kts | 211° |
| 2026-04-30 18:38 | 21.87330 | 113.49627 | 23813 ft | 380 kts | 211° |
| 2026-04-30 18:39 | 21.84938 | 113.48435 | 23335 ft | 377 kts | 210° |
| 2026-04-30 18:39 | 21.82562 | 113.47258 | 22861 ft | 373 kts | 210° |
| 2026-04-30 18:39 | 21.80203 | 113.46093 | 22411 ft | 369 kts | 210° |
| 2026-04-30 18:39 | 21.77880 | 113.44947 | 21978 ft | 365 kts | 210° |
| 2026-04-30 18:40 | 21.75613 | 113.43829 | 21552 ft | 361 kts | 210° |
| 2026-04-30 18:40 | 21.73301 | 113.42781 | 21104 ft | 360 kts | 204° |
| 2026-04-30 18:40 | 21.70828 | 113.42318 | 20648 ft | 366 kts | 186° |
| 2026-04-30 18:40 | 21.68299 | 113.42767 | 20173 ft | 374 kts | 166° |
| 2026-04-30 18:41 | 21.66002 | 113.44156 | 19700 ft | 383 kts | 146° |
| 2026-04-30 18:41 | 21.64067 | 113.46090 | 19224 ft | 385 kts | 140° |
| 2026-04-30 18:41 | 21.62178 | 113.48160 | 18707 ft | 386 kts | 139° |
| 2026-04-30 18:41 | 21.60292 | 113.50230 | 18206 ft | 387 kts | 140° |
| 2026-04-30 18:42 | 21.58402 | 113.52290 | 17648 ft | 385 kts | 140° |
| 2026-04-30 18:42 | 21.55149 | 113.56744 | 16633 ft | 384 kts | 115° |
| 2026-04-30 18:42 | 21.54578 | 113.59541 | 16145 ft | 383 kts | 94° |
| 2026-04-30 18:45 | 21.71700 | 113.77365 | 11921 ft | 343 kts | 41° |
| 2026-04-30 18:45 | 21.72873 | 113.78497 | 11649 ft | 341 kts | 41° |
| 2026-04-30 18:45 | 21.74633 | 113.80205 | 11231 ft | 339 kts | 41° |
| 2026-04-30 18:46 | 21.76378 | 113.81907 | 10833 ft | 336 kts | 41° |
| 2026-04-30 18:46 | 21.78108 | 113.83597 | 10502 ft | 344 kts | 41° |
| 2026-04-30 18:46 | 21.79880 | 113.85327 | 10234 ft | 339 kts | 41° |
| 2026-04-30 18:46 | 21.81596 | 113.87006 | 10039 ft | 327 kts | 41° |
| 2026-04-30 18:47 | 21.83312 | 113.88559 | 9641 ft | 319 kts | 32° |
| 2026-04-30 18:47 | 21.85321 | 113.89414 | 9230 ft | 305 kts | 5° |
| 2026-04-30 18:47 | 21.87365 | 113.89241 | 8871 ft | 290 kts | 340° |
| 2026-04-30 18:47 | 21.89196 | 113.88449 | 8578 ft | 285 kts | 333° |
| 2026-04-30 18:48 | 21.90998 | 113.87543 | 8289 ft | 284 kts | 333° |
| 2026-04-30 18:48 | 21.92785 | 113.86640 | 8000 ft | 283 kts | 333° |
| 2026-04-30 18:48 | 21.94571 | 113.85742 | 7733 ft | 283 kts | 333° |
| 2026-04-30 18:48 | 21.96360 | 113.84848 | 7441 ft | 282 kts | 333° |
| 2026-04-30 18:49 | 21.98120 | 113.83969 | 7163 ft | 281 kts | 334° |
| 2026-04-30 18:49 | 21.99900 | 113.83082 | 6874 ft | 280 kts | 334° |
| 2026-04-30 18:49 | 22.01674 | 113.82198 | 6597 ft | 279 kts | 334° |
| 2026-04-30 18:49 | 22.03425 | 113.81324 | 6313 ft | 277 kts | 334° |
| 2026-04-30 18:50 | 22.05159 | 113.80454 | 6011 ft | 278 kts | 334° |
| 2026-04-30 18:50 | 22.06778 | 113.79644 | 5766 ft | 278 kts | 335° |
| 2026-04-30 18:50 | 22.07939 | 113.79064 | 5579 ft | 277 kts | 335° |
| 2026-04-30 18:50 | 22.09678 | 113.78198 | 5304 ft | 277 kts | 335° |
| 2026-04-30 18:51 | 22.11431 | 113.77326 | 5027 ft | 277 kts | 336° |
| 2026-04-30 18:51 | 22.13190 | 113.76451 | 4786 ft | 279 kts | 336° |
| 2026-04-30 18:51 | 22.14931 | 113.75584 | 4563 ft | 268 kts | 336° |
| 2026-04-30 18:51 | 22.16543 | 113.74775 | 4306 ft | 248 kts | 336° |
| 2026-04-30 18:52 | 22.18055 | 113.74011 | 4054 ft | 230 kts | 337° |
| 2026-04-30 18:52 | 22.19460 | 113.73301 | 3801 ft | 215 kts | 337° |
| 2026-04-30 18:52 | 22.20792 | 113.72737 | 3560 ft | 201 kts | 352° |
| 2026-04-30 18:52 | 22.22106 | 113.72903 | 3383 ft | 190 kts | 28° |
| 2026-04-30 18:53 | 22.23267 | 113.73636 | 3325 ft | 195 kts | 36° |
| 2026-04-30 18:53 | 22.24366 | 113.74430 | 3133 ft | 189 kts | 37° |
| 2026-04-30 18:53 | 22.25467 | 113.75223 | 2767 ft | 192 kts | 37° |
| 2026-04-30 18:53 | 22.26497 | 113.76129 | 2530 ft | 187 kts | 50° |
| 2026-04-30 18:54 | 22.27187 | 113.77288 | 2336 ft | 182 kts | 74° |
| 2026-04-30 18:54 | 22.27484 | 113.78540 | 2173 ft | 165 kts | 78° |
| 2026-04-30 18:54 | 22.27839 | 113.79659 | 1976 ft | 151 kts | 69° |
| 2026-04-30 18:54 | 22.28192 | 113.80678 | 1780 ft | 139 kts | 74° |
| 2026-04-30 18:55 | 22.28490 | 113.81639 | 1616 ft | 135 kts | 74° |
| 2026-04-30 18:55 | 22.29104 | 113.83557 | 1259 ft | 135 kts | 73° |
| 2026-04-30 18:55 | 22.29407 | 113.84502 | 1082 ft | 134 kts | 73° |
| 2026-04-30 18:56 | 22.30012 | 113.86407 | 737 ft | 133 kts | 73° |
| 2026-04-30 18:56 | 22.30297 | 113.87359 | 584 ft | 133 kts | 71° |
| 2026-04-30 18:56 | 22.30614 | 113.88302 | 385 ft | 134 kts | 72° |
| 2026-04-30 18:57 | 22.31203 | 113.90154 | 257 ft | 124 kts | 72° |
| 2026-04-30 18:57 | 22.31498 | 113.91099 | 750 ft | 138 kts | 73° |
| 2026-04-30 18:57 | 22.31815 | 113.92165 | 1283 ft | 161 kts | 76° |
| 2026-04-30 18:58 | 22.31662 | 113.94394 | 1573 ft | 155 kts | 120° |
| 2026-04-30 18:58 | 22.31378 | 113.95631 | 2246 ft | 180 kts | 92° |
| 2026-04-30 18:58 | 22.31671 | 113.96879 | 3141 ft | 172 kts | 67° |
| 2026-04-30 18:59 | 22.33676 | 113.98708 | 4030 ft | 208 kts | 38° |
| 2026-04-30 19:00 | 22.36773 | 114.01239 | 4999 ft | 220 kts | 39° |
| 2026-04-30 19:00 | 22.37996 | 114.02244 | 5146 ft | 222 kts | 39° |
| 2026-04-30 19:00 | 22.40525 | 114.04302 | 6463 ft | 231 kts | 37° |
| 2026-04-30 19:01 | 22.43099 | 114.06384 | 7529 ft | 222 kts | 36° |
| 2026-04-30 19:01 | 22.44332 | 114.07374 | 7235 ft | 224 kts | 36° |
| 2026-04-30 19:02 | 22.46534 | 114.09888 | 7035 ft | 247 kts | 66° |
| 2026-04-30 19:02 | 22.47313 | 114.13711 | 7187 ft | 271 kts | 103° |
| 2026-04-30 19:03 | 22.45408 | 114.17197 | 8596 ft | 277 kts | 132° |
| 2026-04-30 19:03 | 22.42978 | 114.20525 | 9874 ft | 286 kts | 133° |
| 2026-04-30 19:04 | 22.40486 | 114.23912 | 10024 ft | 289 kts | 133° |
| 2026-04-30 19:04 | 22.37992 | 114.27300 | 10017 ft | 290 kts | 133° |
| 2026-04-30 19:05 | 22.35339 | 114.30877 | 10540 ft | 304 kts | 133° |
| 2026-04-30 19:05 | 22.32571 | 114.34036 | 10074 ft | 283 kts | 155° |
| 2026-04-30 19:06 | 22.28925 | 114.34454 | 9250 ft | 260 kts | 207° |
| 2026-04-30 19:06 | 22.27519 | 114.33317 | 8849 ft | 252 kts | 231° |
| 2026-04-30 19:06 | 22.25715 | 114.29967 | 7523 ft | 267 kts | 252° |
| 2026-04-30 19:07 | 22.24554 | 114.26132 | 6569 ft | 270 kts | 254° |
| 2026-04-30 19:07 | 22.23999 | 114.24194 | 6102 ft | 269 kts | 254° |
| 2026-04-30 19:08 | 22.22897 | 114.20307 | 5023 ft | 275 kts | 253° |
| 2026-04-30 19:08 | 22.21776 | 114.16327 | 4009 ft | 276 kts | 253° |
| 2026-04-30 19:08 | 22.21230 | 114.14397 | 3637 ft | 260 kts | 253° |
| 2026-04-30 19:09 | 22.20194 | 114.10764 | 2596 ft | 247 kts | 254° |
| 2026-04-30 19:09 | 22.19688 | 114.08986 | 2390 ft | 248 kts | 254° |
| 2026-04-30 19:09 | 22.19189 | 114.07222 | 2188 ft | 247 kts | 254° |
| 2026-04-30 19:10 | 22.18188 | 114.03681 | 2015 ft | 246 kts | 254° |
| 2026-04-30 19:10 | 22.17192 | 114.00149 | 2022 ft | 247 kts | 255° |
| 2026-04-30 19:11 | 22.16693 | 113.98371 | 2019 ft | 246 kts | 255° |
| 2026-04-30 19:11 | 22.15703 | 113.94855 | 2017 ft | 246 kts | 254° |
| 2026-04-30 19:11 | 22.15204 | 113.93089 | 2017 ft | 246 kts | 255° |
| 2026-04-30 19:12 | 22.14703 | 113.91320 | 2016 ft | 246 kts | 255° |
| 2026-04-30 19:12 | 22.14203 | 113.89552 | 2017 ft | 246 kts | 254° |
| 2026-04-30 19:12 | 22.13708 | 113.87803 | 2017 ft | 246 kts | 254° |
| 2026-04-30 19:13 | 22.12705 | 113.84266 | 2018 ft | 246 kts | 255° |
| 2026-04-30 19:13 | 22.11734 | 113.80758 | 2007 ft | 245 kts | 259° |
| 2026-04-30 19:13 | 22.11663 | 113.78931 | 2018 ft | 243 kts | 281° |
| 2026-04-30 19:14 | 22.12319 | 113.77281 | 2014 ft | 240 kts | 315° |
| 2026-04-30 19:14 | 22.13639 | 113.76263 | 2014 ft | 231 kts | 336° |
| 2026-04-30 19:14 | 22.15037 | 113.75529 | 2000 ft | 214 kts | 338° |
| 2026-04-30 19:14 | 22.16340 | 113.74872 | 2004 ft | 201 kts | 338° |
| 2026-04-30 19:15 | 22.17600 | 113.74240 | 1977 ft | 198 kts | 338° |
| 2026-04-30 19:15 | 22.20089 | 113.72990 | 1753 ft | 198 kts | 338° |
| 2026-04-30 19:15 | 22.21405 | 113.72665 | 1709 ft | 189 kts | 8° |
| 2026-04-30 19:16 | 22.22554 | 113.73145 | 1708 ft | 173 kts | 34° |
| 2026-04-30 19:16 | 22.23561 | 113.73847 | 1731 ft | 172 kts | 37° |
| 2026-04-30 19:16 | 22.25544 | 113.75280 | 1694 ft | 172 kts | 37° |
| 2026-04-30 19:17 | 22.26417 | 113.76082 | 1681 ft | 153 kts | 55° |
| 2026-04-30 19:17 | 22.27269 | 113.77915 | 1683 ft | 133 kts | 76° |
| 2026-04-30 19:17 | 22.27582 | 113.78863 | 1689 ft | 134 kts | 73° |
| 2026-04-30 19:18 | 22.28089 | 113.80439 | 1692 ft | 134 kts | 73° |
| 2026-04-30 19:18 | 22.28504 | 113.81701 | 1612 ft | 135 kts | 73° |
| 2026-04-30 19:18 | 22.28819 | 113.82658 | 1422 ft | 134 kts | 73° |
| 2026-04-30 19:19 | 22.29124 | 113.83611 | 1254 ft | 134 kts | 73° |
| 2026-04-30 19:19 | 22.29426 | 113.84562 | 1075 ft | 134 kts | 72° |
| 2026-04-30 19:19 | 22.30025 | 113.86449 | 734 ft | 133 kts | 71° |
| 2026-04-30 19:20 | 22.30318 | 113.87388 | 548 ft | 132 kts | 74° |
| 2026-04-30 19:20 | 22.30615 | 113.88326 | 366 ft | 132 kts | 73° |
| 2026-04-30 19:20 | 22.31215 | 113.90179 | 39 ft | 132 kts | 71° |
| 2026-04-30 19:21 | 22.31480 | 113.91011 | 38 ft | 87 kts | 69° |
| 2026-04-30 19:21 | 22.31647 | 113.91533 | 39 ft | 25 kts | 76° |
| 2026-04-30 19:22 | 22.31630 | 113.91822 | 39 ft | 0 kts | 100° |
| 2026-04-30 19:22 | 22.31629 | 113.91827 | 39 ft | 1 kts | 100° |
| 2026-04-30 19:23 | 22.31628 | 113.91833 | 39 ft | 0 kts | 100° |
| 2026-04-30 19:24 | 22.31622 | 113.91873 | 38 ft | 6 kts | 100° |
| 2026-04-30 19:24 | 22.31612 | 113.91932 | 38 ft | 10 kts | 100° |
| 2026-04-30 19:24 | 22.31601 | 113.92001 | 38 ft | 0 kts | 99° |
| 2026-04-30 19:26 | 22.31600 | 113.92003 | 38 ft | 1 kts | 104° |
| 2026-04-30 19:26 | 22.31592 | 113.92017 | 38 ft | 4 kts | 126° |
| 2026-04-30 19:27 | 22.31568 | 113.92124 | 38 ft | 10 kts | 79° |
| 2026-04-30 19:27 | 22.31624 | 113.92307 | 38 ft | 15 kts | 71° |
| 2026-04-30 19:28 | 22.31641 | 113.92398 | 38 ft | 9 kts | 95° |
| 2026-04-30 19:28 | 22.31586 | 113.92549 | 38 ft | 13 kts | 117° |
| 2026-04-30 19:29 | 22.31545 | 113.92639 | 38 ft | 0 kts | 116° |
| 2026-04-30 19:29 | 22.31541 | 113.92648 | 38 ft | 3 kts | 118° |
| 2026-04-30 19:30 | 22.31453 | 113.92650 | 38 ft | 2 kts | 202° |
| 2026-04-30 19:30 | 22.31427 | 113.92638 | 38 ft | 0 kts | 204° |